ウシュアイア の空港の天気 - METARとTAF

ウシュアイア空港 ( SAWH / USH ) - アルゼンチン ティエラ・デル・フエゴ州、ウシュアイア
飛行場実況気象(Metar)
観測時間11/30 13:00 ART (11/30 16:00 UTC)
風向・風速南西 14m/s 瞬間風速23m/s
視程10km以上
天気現象
全天の8割程度の雲 雲底高度 1370m
気温11℃
湿度50%
気圧991hPa
METARSAWH 301600Z 23027G44KT 9999 BKN045 11/01 Q0991 RMK PP000
過去の天気等 Google飛行場航空写真 Wunderground天気予報

過去48時間のMETAR

飛行場予報(TAF)
発表時間: 11/30 08:00 ART (11/30 11:00 UTC)
予報対象時間: 30日9時 ART ~ 1日9時 ART
風向・風速西 13m/s 瞬間風速 18m/s
視程10km以上
全天の8割程度の雲 雲底高度 610m
全天の4割程度の雲 雲底高度 910m
30日9時 ART ~ 30日14時 ART に一時的に
視程5000m
天気現象しゅう雨
30日16時 ART ~ 30日18時 ART に徐々に
風向・風速西北西 13m/s
全天の8割程度の雲 雲底高度 790m
1日0時 ART ~ 1日2時 ART に徐々に
風向・風速西北西 9m/s
TAF SAWH 301100Z 3012/0112 27025G35KT 9999 BKN020 SCT030 TX11/3019Z TN04/0110Z
TEMPO 3012/3017 5000 SHRA
BECMG 3019/3021 30025KT BKN026
BECMG 0103/0105 30018KT